createdAt,value
2023-01-25T00:00:34.541Z,98132.41
2023-01-25T00:03:02.394Z,98131.50
2023-01-25T00:05:30.649Z,98133.25
2023-01-25T00:07:58.494Z,98135.00
2023-01-25T00:10:26.341Z,98128.88
2023-01-25T00:12:54.220Z,98128.88
2023-01-25T00:15:23.542Z,98130.66
2023-01-25T00:17:51.643Z,98127.19
2023-01-25T00:20:19.512Z,98113.28
2023-01-25T00:22:47.364Z,98115.03
2023-01-25T00:25:15.300Z,98102.00
2023-01-25T00:27:43.119Z,98096.81
2023-01-25T00:30:47.957Z,98100.25
2023-01-25T00:33:59.095Z,98103.78
2023-01-25T00:36:32.896Z,98103.75
2023-01-25T00:39:00.731Z,98103.69
2023-01-25T00:41:28.593Z,98104.56
2023-01-25T00:43:56.711Z,98100.25
2023-01-25T00:46:25.494Z,98103.63
2023-01-25T00:48:56.031Z,98102.78
2023-01-25T00:51:25.052Z,98102.78
2023-01-25T00:53:53.490Z,98107.13
2023-01-25T00:56:21.739Z,98100.25
2023-01-25T00:58:49.732Z,98097.66
2023-01-25T01:01:20.174Z,98092.41
2023-01-25T01:03:48.076Z,98088.06
2023-01-25T01:06:54.383Z,98085.41
2023-01-25T01:09:42.713Z,98088.09
2023-01-25T01:13:24.216Z,98089.84
2023-01-25T01:17:05.747Z,98090.72
2023-01-25T01:19:55.062Z,98086.31
2023-01-25T01:22:23.018Z,98094.09
2023-01-25T01:24:52.277Z,98093.34
2023-01-25T01:27:20.175Z,98091.53
2023-01-25T01:29:48.038Z,98089.78
2023-01-25T01:32:16.136Z,98089.84
2023-01-25T01:34:44.518Z,98088.97
2023-01-25T01:37:12.881Z,98088.13
2023-01-25T01:39:40.708Z,98088.13
2023-01-25T01:42:10.159Z,98084.66
2023-01-25T01:44:46.402Z,98082.88
2023-01-25T01:47:18.864Z,98087.22
2023-01-25T01:49:52.288Z,98084.63
2023-01-25T01:52:24.756Z,98086.38
2023-01-25T01:54:59.408Z,98091.53
2023-01-25T01:57:35.803Z,98082.84
2023-01-25T02:00:09.691Z,98085.53
2023-01-25T02:02:45.188Z,98084.72
2023-01-25T02:05:20.478Z,98084.69
2023-01-25T02:07:51.922Z,98084.66
2023-01-25T02:10:22.281Z,98088.09
2023-01-25T02:12:53.837Z,98094.13
2023-01-25T02:15:21.957Z,98096.75
2023-01-25T02:17:51.103Z,98086.31
2023-01-25T02:20:28.383Z,98086.38
2023-01-25T02:23:02.520Z,98077.66
2023-01-25T02:25:32.075Z,98076.81
2023-01-25T02:28:08.337Z,98082.88
2023-01-25T02:30:36.397Z,98075.13
2023-01-25T02:33:04.351Z,98076.75
2023-01-25T02:35:41.942Z,98067.25
2023-01-25T02:38:12.998Z,98069.78
2023-01-25T02:40:47.475Z,98065.50
2023-01-25T02:43:17.229Z,98057.69
2023-01-25T02:45:49.000Z,98059.38
2023-01-25T02:48:17.002Z,98061.22
2023-01-25T02:50:45.728Z,98066.31
2023-01-25T02:53:13.712Z,98074.22
2023-01-25T02:55:42.932Z,98063.72
2023-01-25T02:58:10.876Z,98067.34
2023-01-25T03:00:38.879Z,98066.41
2023-01-25T03:03:06.827Z,98058.59
2023-01-25T03:05:35.374Z,98056.94
2023-01-25T03:08:03.417Z,98049.06
2023-01-25T03:10:31.528Z,98047.28
2023-01-25T03:13:00.808Z,98052.50
2023-01-25T03:15:28.923Z,98042.91
2023-01-25T03:17:57.685Z,98042.97
2023-01-25T03:20:25.591Z,98041.19
2023-01-25T03:22:53.567Z,98032.50
2023-01-25T03:25:21.508Z,98024.69
2023-01-25T03:27:59.822Z,98029.03
2023-01-25T03:30:28.206Z,98024.66
2023-01-25T03:32:56.221Z,98024.69
2023-01-25T03:35:24.417Z,98030.72
2023-01-25T03:37:52.851Z,98028.09
2023-01-25T03:40:20.908Z,98019.44
2023-01-25T03:42:52.252Z,98016.84
2023-01-25T03:45:22.127Z,98021.22
2023-01-25T03:47:50.991Z,98022.03
2023-01-25T03:50:19.051Z,98022.88
2023-01-25T03:52:49.355Z,98019.44
2023-01-25T03:55:17.534Z,98015.91
2023-01-25T03:57:49.072Z,98021.22
2023-01-25T04:00:20.069Z,98017.63
2023-01-25T04:02:57.909Z,98016.75
2023-01-25T04:05:27.356Z,98013.25
2023-01-25T04:07:55.725Z,98015.03
2023-01-25T04:10:32.246Z,98013.25
2023-01-25T04:13:00.208Z,98013.25
2023-01-25T04:15:28.498Z,98014.13
2023-01-25T04:18:02.639Z,98015.84
2023-01-25T04:20:30.662Z,98018.56
2023-01-25T04:22:59.812Z,98011.63
2023-01-25T04:25:35.353Z,98018.53
2023-01-25T04:28:03.497Z,98011.56
2023-01-25T04:30:32.458Z,98015.84
2023-01-25T04:33:08.066Z,98015.03
2023-01-25T04:35:35.981Z,98008.94
2023-01-25T04:38:06.709Z,98006.34
2023-01-25T04:40:39.093Z,98003.75
2023-01-25T04:43:07.690Z,98008.94
2023-01-25T04:45:36.815Z,98008.13
2023-01-25T04:48:13.102Z,98002.91
2023-01-25T04:50:48.424Z,98009.81
2023-01-25T04:53:17.124Z,98000.31
2023-01-25T04:55:48.624Z,98002.00
2023-01-25T04:58:17.417Z,98007.31
2023-01-25T05:00:45.627Z,98005.50
2023-01-25T05:03:14.886Z,98000.28
2023-01-25T05:05:47.699Z,97997.69
2023-01-25T05:08:19.236Z,97993.31
2023-01-25T05:10:47.353Z,97997.63
2023-01-25T05:13:26.505Z,97990.72
2023-01-25T05:16:08.985Z,97991.59
2023-01-25T05:18:48.060Z,97989.03
2023-01-25T05:21:38.294Z,97984.66
2023-01-25T05:24:07.002Z,97999.47
2023-01-25T05:26:53.092Z,97993.44
2023-01-25T05:29:21.756Z,97986.38
2023-01-25T05:31:58.579Z,97993.44
2023-01-25T05:34:29.058Z,97989.00
2023-01-25T05:36:58.079Z,97986.44
2023-01-25T05:39:26.687Z,97986.53
2023-01-25T05:41:55.456Z,97983.84
2023-01-25T05:44:24.414Z,97988.13
2023-01-25T05:46:53.450Z,97986.44
2023-01-25T05:49:21.600Z,97992.56
2023-01-25T05:51:50.805Z,97991.66
2023-01-25T05:54:20.661Z,97988.06
2023-01-25T05:56:57.736Z,97987.28
2023-01-25T05:59:26.484Z,97984.63
2023-01-25T06:01:55.436Z,97977.81
2023-01-25T06:04:23.611Z,97982.09
2023-01-25T06:06:52.832Z,97982.16
2023-01-25T06:09:20.931Z,97980.41
2023-01-25T06:11:49.105Z,97983.03
2023-01-25T06:14:17.301Z,97983.94
2023-01-25T06:16:45.260Z,97975.22
2023-01-25T06:19:24.923Z,97966.47
2023-01-25T06:22:09.368Z,97983.84
2023-01-25T06:24:37.178Z,97969.97
2023-01-25T06:27:05.116Z,97973.41
2023-01-25T06:29:32.903Z,97977.78
2023-01-25T06:32:00.830Z,97967.31
2023-01-25T06:34:29.082Z,97972.59
2023-01-25T06:36:57.721Z,97971.75
2023-01-25T06:39:26.953Z,97973.47
2023-01-25T06:41:55.064Z,97965.63
2023-01-25T06:44:22.919Z,97967.44
2023-01-25T06:46:50.934Z,97970.81
2023-01-25T06:49:18.825Z,97968.22
2023-01-25T06:51:46.704Z,97971.66
2023-01-25T06:54:14.632Z,97969.09
2023-01-25T06:56:43.959Z,97966.47
2023-01-25T06:59:11.907Z,97959.59
2023-01-25T07:01:39.860Z,97963.03
2023-01-25T07:04:08.986Z,97953.44
2023-01-25T07:06:37.131Z,97942.19
2023-01-25T07:09:06.188Z,97949.19
2023-01-25T07:11:34.067Z,97943.94
2023-01-25T07:14:03.434Z,97935.22
2023-01-25T07:16:36.672Z,97937.81
2023-01-25T07:19:04.840Z,97945.69
2023-01-25T07:21:32.729Z,97939.56
2023-01-25T07:24:02.894Z,97939.56
2023-01-25T07:26:31.834Z,97935.19
2023-01-25T07:29:00.597Z,97934.38
2023-01-25T07:31:30.743Z,97950.91
2023-01-25T07:33:59.561Z,97944.78
2023-01-25T07:36:27.906Z,97935.22
2023-01-25T07:38:57.169Z,97936.06
2023-01-25T07:41:26.600Z,97936.91
2023-01-25T07:43:54.801Z,97938.72
2023-01-25T07:46:38.961Z,97927.47
2023-01-25T07:49:06.767Z,97930.81
2023-01-25T07:51:34.697Z,97930.81
2023-01-25T07:54:05.175Z,97928.22
2023-01-25T07:56:35.081Z,97929.09
2023-01-25T07:59:03.635Z,97920.34
2023-01-25T08:01:34.443Z,97922.88
2023-01-25T08:04:05.731Z,97922.94
2023-01-25T08:06:39.160Z,97927.22
2023-01-25T08:09:09.938Z,97934.28
2023-01-25T08:11:37.774Z,97928.13
2023-01-25T08:14:05.668Z,97930.75
2023-01-25T08:16:34.261Z,97930.69
2023-01-25T08:19:04.659Z,97933.28
2023-01-25T08:21:34.500Z,97939.31
2023-01-25T08:24:05.066Z,97928.03
2023-01-25T08:26:33.231Z,97933.28
2023-01-25T08:29:01.135Z,97940.22
2023-01-25T08:31:30.728Z,97942.00
2023-01-25T08:33:59.630Z,97936.72
2023-01-25T08:36:29.206Z,97931.56
2023-01-25T08:38:59.235Z,97932.50
2023-01-25T08:41:28.550Z,97938.56
2023-01-25T08:43:57.522Z,97928.91
2023-01-25T08:46:30.282Z,97922.84
2023-01-25T08:49:01.094Z,97917.63
2023-01-25T08:51:31.709Z,97922.88
2023-01-25T08:54:03.323Z,97916.72
2023-01-25T08:56:31.235Z,97919.41
2023-01-25T08:58:59.077Z,97904.66
2023-01-25T09:01:26.934Z,97908.19
2023-01-25T09:03:55.990Z,97906.41
2023-01-25T09:06:23.896Z,97900.25
2023-01-25T09:08:53.105Z,97892.59
2023-01-25T09:11:23.396Z,97892.53
2023-01-25T09:13:51.659Z,97892.53
2023-01-25T09:16:28.013Z,97897.72
2023-01-25T09:18:57.246Z,97896.75
2023-01-25T09:21:25.424Z,97904.59
2023-01-25T09:24:10.704Z,97888.22
2023-01-25T09:26:42.790Z,97883.03
2023-01-25T09:29:29.397Z,97892.53
2023-01-25T09:31:57.870Z,97889.91
2023-01-25T09:34:41.291Z,97894.22
2023-01-25T09:37:09.156Z,97895.25
2023-01-25T09:39:38.356Z,97891.84
2023-01-25T09:42:48.107Z,97895.13
2023-01-25T09:45:25.207Z,97893.34
2023-01-25T09:47:59.191Z,97889.81
2023-01-25T09:50:34.613Z,97902.00
2023-01-25T09:53:30.966Z,97899.41
2023-01-25T09:56:04.537Z,97895.00
2023-01-25T09:58:36.416Z,97896.84
2023-01-25T10:01:19.507Z,97891.50
2023-01-25T10:03:56.053Z,97881.16
2023-01-25T10:06:30.416Z,97884.63
2023-01-25T10:09:08.383Z,97888.16
2023-01-25T10:11:39.851Z,97885.53
2023-01-25T10:14:15.271Z,97882.88
2023-01-25T10:16:57.007Z,97882.13
2023-01-25T10:19:35.627Z,97880.34
2023-01-25T10:22:11.868Z,97879.59
2023-01-25T10:25:03.115Z,97880.34
2023-01-25T10:27:41.476Z,97877.72
2023-01-25T10:30:24.494Z,97878.56
2023-01-25T10:32:56.217Z,97871.69
2023-01-25T10:35:35.551Z,97860.34
2023-01-25T10:38:08.427Z,97860.25
2023-01-25T10:40:43.272Z,97854.22
2023-01-25T10:43:18.514Z,97857.63
2023-01-25T10:45:48.138Z,97849.91
2023-01-25T10:48:20.386Z,97849.91
2023-01-25T10:50:51.493Z,97842.88
2023-01-25T10:53:34.155Z,97832.47
2023-01-25T10:56:22.961Z,97837.78
2023-01-25T10:58:55.328Z,97827.44
2023-01-25T11:01:29.403Z,97835.00
2023-01-25T11:03:57.565Z,97825.44
2023-01-25T11:06:35.234Z,97821.09
2023-01-25T11:09:23.860Z,97813.19
2023-01-25T11:11:56.329Z,97826.31
2023-01-25T11:14:27.612Z,97821.09
2023-01-25T11:16:57.392Z,97813.41
2023-01-25T11:19:28.944Z,97816.81
2023-01-25T11:21:58.867Z,97821.09
2023-01-25T11:24:29.095Z,97815.88
2023-01-25T11:27:20.485Z,97818.50
2023-01-25T11:30:09.768Z,97818.47
2023-01-25T11:32:39.989Z,97816.88
2023-01-25T11:35:14.133Z,97814.31
2023-01-25T11:37:59.511Z,97809.00
2023-01-25T11:40:35.082Z,97804.91
2023-01-25T11:43:15.653Z,97794.41
2023-01-25T11:46:07.670Z,97795.22
2023-01-25T11:48:53.681Z,97788.28
2023-01-25T11:51:26.300Z,97785.69
2023-01-25T11:54:26.540Z,97779.59
2023-01-25T11:57:00.135Z,97770.06
2023-01-25T11:59:50.148Z,97769.25
2023-01-25T12:02:39.239Z,97760.47
2023-01-25T12:05:29.699Z,97761.38
2023-01-25T12:08:10.179Z,97756.22
2023-01-25T12:10:48.020Z,97749.22
2023-01-25T12:13:25.377Z,97743.06
2023-01-25T12:16:03.549Z,97727.56
2023-01-25T12:18:52.607Z,97723.25
2023-01-25T12:21:33.176Z,97720.56
2023-01-25T12:24:20.867Z,97706.63
2023-01-25T12:26:58.471Z,97711.16
2023-01-25T12:29:33.595Z,97700.66
2023-01-25T12:32:07.043Z,97700.81
2023-01-25T12:34:38.780Z,97690.16
2023-01-25T12:37:16.248Z,97681.63
2023-01-25T12:39:50.048Z,97674.66
2023-01-25T12:42:22.559Z,97677.13
2023-01-25T12:44:55.821Z,97670.22
2023-01-25T12:47:32.966Z,97667.53
2023-01-25T12:50:10.821Z,97669.31
2023-01-25T12:52:43.775Z,97665.91
2023-01-25T12:55:15.991Z,97664.34
2023-01-25T12:57:52.388Z,97666.00
2023-01-25T13:00:25.316Z,97653.06
2023-01-25T13:03:08.843Z,97644.53
2023-01-25T13:05:46.592Z,97647.78
2023-01-25T13:08:31.864Z,97640.78
2023-01-25T13:11:09.745Z,97634.84
2023-01-25T13:13:37.674Z,97634.84
2023-01-25T13:16:32.601Z,97624.41
2023-01-25T13:19:01.288Z,97624.47
2023-01-25T13:21:46.399Z,97627.97
2023-01-25T13:24:18.344Z,97624.34
2023-01-25T13:26:58.112Z,97622.63
2023-01-25T13:29:55.965Z,97619.25
2023-01-25T13:32:55.476Z,97618.31
2023-01-25T13:35:32.012Z,97617.44
2023-01-25T13:38:07.525Z,97608.09
2023-01-25T13:40:37.354Z,97600.38
2023-01-25T13:43:07.428Z,97601.00
2023-01-25T13:45:39.326Z,97601.16
2023-01-25T13:48:14.898Z,97587.25
2023-01-25T13:50:48.261Z,97591.44
2023-01-25T13:53:23.031Z,97586.19
2023-01-25T13:55:52.485Z,97579.34
2023-01-25T13:58:23.462Z,97581.91
2023-01-25T14:00:54.714Z,97587.25
2023-01-25T14:03:27.105Z,97588.03
2023-01-25T14:05:56.933Z,97584.63
2023-01-25T14:08:27.506Z,97585.50
2023-01-25T14:10:58.014Z,97582.81
2023-01-25T14:13:26.132Z,97577.00
2023-01-25T14:15:56.577Z,97569.91
2023-01-25T14:18:29.647Z,97576.06
2023-01-25T14:21:13.144Z,97574.47
2023-01-25T14:23:42.377Z,97574.41
2023-01-25T14:26:19.324Z,97569.16
2023-01-25T14:28:59.223Z,97576.06
2023-01-25T14:31:33.837Z,97580.41
2023-01-25T14:34:04.125Z,97575.06
2023-01-25T14:36:34.475Z,97582.31
2023-01-25T14:39:14.533Z,97577.09
2023-01-25T14:41:59.292Z,97577.94
2023-01-25T14:44:30.146Z,97573.59
2023-01-25T14:47:20.987Z,97576.41
2023-01-25T14:49:48.913Z,97566.81
2023-01-25T14:52:20.324Z,97574.53
2023-01-25T14:54:54.179Z,97570.22
2023-01-25T14:57:35.435Z,97565.03
2023-01-25T15:00:05.226Z,97564.16
2023-01-25T15:02:40.028Z,97550.28
2023-01-25T15:05:19.479Z,97556.41
2023-01-25T15:07:49.609Z,97550.44
2023-01-25T15:10:23.112Z,97549.59
2023-01-25T15:13:18.130Z,97542.63
2023-01-25T15:15:53.903Z,97541.69
2023-01-25T15:18:47.230Z,97540.03
2023-01-25T15:21:16.533Z,97534.84
2023-01-25T15:23:46.187Z,97532.28
2023-01-25T15:26:22.805Z,97530.47
2023-01-25T15:28:51.584Z,97532.38
2023-01-25T15:31:22.015Z,97526.25
2023-01-25T15:33:50.148Z,97521.00
2023-01-25T15:36:18.595Z,97516.75
2023-01-25T15:38:46.901Z,97517.59
2023-01-25T15:41:15.369Z,97526.53
2023-01-25T15:43:44.594Z,97514.41
2023-01-25T15:46:17.732Z,97497.06
2023-01-25T15:48:47.173Z,97498.97
2023-01-25T15:51:15.031Z,97495.34
2023-01-25T15:53:43.104Z,97493.59
2023-01-25T15:56:15.298Z,97489.28
2023-01-25T15:58:47.223Z,97479.63
2023-01-25T16:01:15.472Z,97481.50
2023-01-25T16:03:43.381Z,97475.47
2023-01-25T16:06:24.928Z,97468.53
2023-01-25T16:08:52.999Z,97470.25
2023-01-25T16:11:20.965Z,97473.69
2023-01-25T16:13:50.118Z,97465.06
2023-01-25T16:16:20.007Z,97471.09
2023-01-25T16:18:48.898Z,97469.38
2023-01-25T16:21:17.182Z,97467.69
2023-01-25T16:23:44.997Z,97469.38
2023-01-25T16:26:19.952Z,97459.75
2023-01-25T16:28:48.351Z,97453.69
2023-01-25T16:31:31.397Z,97458.06
2023-01-25T16:34:00.575Z,97446.84
2023-01-25T16:36:28.882Z,97453.72
2023-01-25T16:38:56.850Z,97445.16
2023-01-25T16:41:24.681Z,97438.22
2023-01-25T16:43:53.563Z,97450.28
2023-01-25T16:46:24.342Z,97457.91
2023-01-25T16:48:53.248Z,97458.81
2023-01-25T16:51:23.293Z,97457.34
2023-01-25T16:53:52.946Z,97454.69
2023-01-25T16:56:22.964Z,97452.91
2023-01-25T16:58:51.864Z,97448.50
2023-01-25T17:01:23.103Z,97456.34
2023-01-25T17:03:51.413Z,97448.75
2023-01-25T17:06:20.996Z,97448.63
2023-01-25T17:08:49.669Z,97447.69
2023-01-25T17:11:18.730Z,97442.56
2023-01-25T17:13:49.262Z,97440.75
2023-01-25T17:16:17.454Z,97438.22
2023-01-25T17:18:46.712Z,97438.16
2023-01-25T17:21:16.820Z,97435.50
2023-01-25T17:23:44.756Z,97440.75
2023-01-25T17:26:14.376Z,97441.69
2023-01-25T17:28:42.882Z,97434.00
2023-01-25T17:31:15.024Z,97428.78
2023-01-25T17:33:42.995Z,97425.34
2023-01-25T17:36:15.012Z,97421.09
2023-01-25T17:38:43.731Z,97425.44
2023-01-25T17:41:13.383Z,97419.31
2023-01-25T17:43:41.293Z,97417.50
2023-01-25T17:46:13.437Z,97412.44
2023-01-25T17:48:41.774Z,97415.88
2023-01-25T17:51:09.813Z,97413.25
2023-01-25T17:53:38.990Z,97397.72
2023-01-25T17:56:08.516Z,97407.25
2023-01-25T17:58:37.897Z,97408.19
2023-01-25T18:01:14.192Z,97397.91
2023-01-25T18:03:43.143Z,97396.97
2023-01-25T18:06:12.079Z,97396.84
2023-01-25T18:08:42.437Z,97395.06
2023-01-25T18:11:11.164Z,97392.44
2023-01-25T18:13:42.551Z,97395.97
2023-01-25T18:16:11.039Z,97387.41
2023-01-25T18:18:40.451Z,97383.03
2023-01-25T18:21:10.707Z,97376.16
2023-01-25T18:23:40.704Z,97390.84
2023-01-25T18:26:18.698Z,97374.38
2023-01-25T18:28:46.942Z,97379.69
2023-01-25T18:31:17.417Z,97384.06
2023-01-25T18:33:45.892Z,97376.19
2023-01-25T18:36:15.925Z,97372.81
2023-01-25T18:38:43.806Z,97361.47
2023-01-25T18:41:13.615Z,97364.13
2023-01-25T18:43:41.552Z,97354.50
2023-01-25T18:46:11.262Z,97348.41
2023-01-25T18:48:39.905Z,97353.56
2023-01-25T18:51:11.185Z,97356.56
2023-01-25T18:53:41.143Z,97358.28
2023-01-25T18:56:14.120Z,97347.81
2023-01-25T18:58:42.835Z,97350.38
2023-01-25T19:01:13.942Z,97350.28
2023-01-25T19:03:42.161Z,97352.88
2023-01-25T19:06:10.741Z,97345.03
2023-01-25T19:08:41.497Z,97352.91
2023-01-25T19:11:11.399Z,97340.00
2023-01-25T19:13:42.253Z,97339.97
2023-01-25T19:16:13.563Z,97347.78
2023-01-25T19:18:46.364Z,97334.81
2023-01-25T19:21:16.171Z,97335.72
2023-01-25T19:23:44.303Z,97338.28
2023-01-25T19:26:13.957Z,97327.69
2023-01-25T19:28:43.540Z,97321.75
2023-01-25T19:31:13.986Z,97324.28
2023-01-25T19:33:42.453Z,97326.06
2023-01-25T19:36:15.378Z,97332.16
2023-01-25T19:38:43.661Z,97325.09
2023-01-25T19:41:13.272Z,97327.75
2023-01-25T19:43:43.562Z,97325.16
2023-01-25T19:46:13.210Z,97319.09
2023-01-25T19:48:41.840Z,97312.19
2023-01-25T19:51:11.235Z,97319.03
2023-01-25T19:53:39.337Z,97315.53
2023-01-25T19:56:09.278Z,97311.22
2023-01-25T19:58:37.258Z,97312.28
2023-01-25T20:01:11.073Z,97307.09
2023-01-25T20:03:39.638Z,97307.09
2023-01-25T20:06:08.662Z,97311.53
2023-01-25T20:08:38.822Z,97300.34
2023-01-25T20:11:09.024Z,97301.25
2023-01-25T20:13:37.360Z,97301.34
2023-01-25T20:16:06.524Z,97303.84
2023-01-25T20:18:36.310Z,97295.19
2023-01-25T20:21:06.165Z,97296.03
2023-01-25T20:23:35.716Z,97303.75
2023-01-25T20:26:05.895Z,97295.16
2023-01-25T20:28:35.713Z,97295.94
2023-01-25T20:31:04.693Z,97283.84
2023-01-25T20:33:32.791Z,97277.03
2023-01-25T20:36:03.663Z,97274.53
2023-01-25T20:38:31.927Z,97273.53
2023-01-25T20:41:00.723Z,97277.94
2023-01-25T20:43:29.555Z,97270.94
2023-01-25T20:45:57.596Z,97274.41
2023-01-25T20:48:25.953Z,97274.41
2023-01-25T20:50:53.804Z,97265.81
2023-01-25T20:53:23.052Z,97264.81
2023-01-25T20:55:55.913Z,97270.06
2023-01-25T20:58:23.791Z,97258.81
2023-01-25T21:00:51.866Z,97253.59
2023-01-25T21:03:19.780Z,97252.69
2023-01-25T21:05:52.458Z,97250.94
2023-01-25T21:08:20.881Z,97236.34
2023-01-25T21:10:51.457Z,97233.78
2023-01-25T21:13:20.079Z,97230.41
2023-01-25T21:15:59.309Z,97228.56
2023-01-25T21:18:29.509Z,97223.31
2023-01-25T21:21:06.146Z,97216.47
2023-01-25T21:23:35.260Z,97231.25
2023-01-25T21:26:05.639Z,97225.22
2023-01-25T21:28:34.292Z,97220.06
2023-01-25T21:31:08.462Z,97213.94
2023-01-25T21:33:36.721Z,97217.41
2023-01-25T21:36:08.485Z,97212.22
2023-01-25T21:38:36.398Z,97213.91
2023-01-25T21:41:07.684Z,97214.69
2023-01-25T21:43:56.165Z,97210.31
2023-01-25T21:46:27.701Z,97202.69
2023-01-25T21:49:14.070Z,97214.81
2023-01-25T21:51:49.388Z,97200.00
2023-01-25T21:54:18.261Z,97199.94
2023-01-25T21:56:49.418Z,97193.09
2023-01-25T21:59:17.939Z,97190.53
2023-01-25T22:01:46.665Z,97193.94
2023-01-25T22:04:16.156Z,97186.97
2023-01-25T22:06:44.802Z,97190.50
2023-01-25T22:09:14.375Z,97187.00
2023-01-25T22:11:45.766Z,97190.47
2023-01-25T22:14:15.680Z,97183.63
2023-01-25T22:16:43.569Z,97182.72
2023-01-25T22:19:11.441Z,97180.22
2023-01-25T22:21:39.229Z,97181.97
2023-01-25T22:24:08.571Z,97178.59
2023-01-25T22:26:47.320Z,97182.72
2023-01-25T22:29:33.265Z,97176.59
2023-01-25T22:32:02.192Z,97182.03
2023-01-25T22:34:30.253Z,97172.47
2023-01-25T22:36:58.136Z,97176.91
2023-01-25T22:39:25.959Z,97174.38
2023-01-25T22:41:53.883Z,97170.81
2023-01-25T22:44:21.715Z,97175.16
2023-01-25T22:46:52.333Z,97169.03
2023-01-25T22:49:20.419Z,97166.50
2023-01-25T22:51:48.417Z,97166.56
2023-01-25T22:54:16.411Z,97167.34
2023-01-25T22:56:44.257Z,97164.81
2023-01-25T22:59:14.810Z,97165.69
2023-01-25T23:01:42.651Z,97163.09
2023-01-25T23:04:11.983Z,97156.94
2023-01-25T23:06:39.835Z,97151.88
2023-01-25T23:09:07.655Z,97148.38
2023-01-25T23:11:37.943Z,97151.78
2023-01-25T23:14:24.436Z,97147.44
2023-01-25T23:16:52.362Z,97150.97
2023-01-25T23:19:20.591Z,97149.47
2023-01-25T23:21:48.446Z,97152.16
2023-01-25T23:24:16.329Z,97146.16
2023-01-25T23:26:46.523Z,97141.66
2023-01-25T23:29:15.012Z,97146.94
2023-01-25T23:31:43.255Z,97141.94
2023-01-25T23:34:12.637Z,97136.97
2023-01-25T23:36:42.384Z,97138.53
2023-01-25T23:39:13.153Z,97142.13
2023-01-25T23:41:41.028Z,97133.31
2023-01-25T23:44:09.129Z,97127.16
2023-01-25T23:46:37.115Z,97131.81
2023-01-25T23:49:05.049Z,97118.66
2023-01-25T23:51:32.892Z,97120.41
2023-01-25T23:54:02.055Z,97110.84
2023-01-25T23:56:29.973Z,97105.66
2023-01-25T23:58:58.535Z,97103.91
